MSC Portugal — D5NP7 — position and weather

sailwx.info

Track history (hours):
 
Tides and Currents Weather Stations Pressure Air Temp Water Temp Dewpoint Dewpoint Depression Visibility Wind Speed Wind Dir Waves Ship Positions

MSC Portugal

Last reported at 2018-Mar-31 06:02 UTC. Time now 2018-Apr-24 10:49 UTC.
Position N 35°44' E 017°42'.
Warning: this ship's position is 24 days out of date.

Length 304 m; draft 13.8 m.

Type: Ship (hazmat cat A). MMSI: 636017974.

Date/timePositionNaut miles runAvg speedWind from/ knotsBaromVisibWave heightAir tempDewpointWater temp
2018-Mar-31 06:02N 35°44' E 017°42'011.8
2018-Mar-31 06:00N 35°44' E 017°42'1122.2
2018-Mar-31 05:29N 35°47' E 017°28'1019.6
2018-Mar-31 05:00N 35°50' E 017°17'1222.3
2018-Mar-31 04:29N 35°53' E 017°04'1122.3
2018-Mar-31 04:00N 35°57' E 016°51'1419.9
2018-Mar-31 03:18N 36°01' E 016°35'819.4
2018-Mar-31 02:54N 36°04' E 016°26'921.6
2018-Mar-31 02:30N 36°07' E 016°16'1120.5
2018-Mar-31 01:58N 36°11' E 016°03'2821.6
2018-Mar-31 00:41N 36°19' E 015°30'314.1
2018-Mar-31 00:29N 36°20' E 015°27'1222.7
2018-Mar-30 23:58N 36°24' E 015°13'1020.8
2018-Mar-30 23:29N 36°27' E 015°01'1325.9
2018-Mar-30 23:00N 36°33' E 014°47'1122.1
2018-Mar-30 22:30N 36°38' E 014°35'1621.2
2018-Mar-30 21:44N 36°45' E 014°17'924.6
2018-Mar-30 21:21N 36°49' E 014°06'820.5
2018-Mar-30 20:59N 36°53' E 013°58'1123.1
2018-Mar-30 20:30N 36°57' E 013°45'1119.2
2018-Mar-30 19:54N 37°02' E 013°32'3620.2
2018-Mar-30 18:06N 37°19' E 012°52'218.1
2018-Mar-30 17:58N 37°20' E 012°49'1122.1
2018-Mar-30 17:29N 37°25' E 012°37'1117.9
2018-Mar-30 16:53N 37°29' E 012°24'1222.5
2018-Mar-30 16:20N 37°34' E 012°11'1023.5
2018-Mar-30 15:56N 37°40' E 012°01'918.2
2018-Mar-30 15:26N 37°44' E 011°50'1121.8
2018-Mar-30 14:55N 37°49' E 011°38'716.6
2018-Mar-30 14:30N 37°53' E 011°30'1423.5
2018-Mar-30 13:55N 37°59' E 011°15'1224.6
2018-Mar-30 13:25N 38°05' E 011°01'1118.8
2018-Mar-30 12:51N 38°09' E 010°49'515.2
2018-Mar-30 12:30N 38°11' E 010°42'1222.9
2018-Mar-30 12:00N 38°14' E 010°28'1019.7
2018-Mar-30 11:28N 38°17' E 010°16'36520.0
2018-Mar-29 17:11N 43°00' E 005°10'421.1
2018-Mar-29 17:00N 43°03' E 005°08'1121.2
2018-Mar-29 16:31N 43°12' E 005°01'918.5
2018-Mar-29 16:01N 43°21' E 004°58'5 9.8
2018-Mar-29 15:30N 43°24' E 004°52'2 3.7
2018-Mar-29 14:59N 43°25' E 004°50'0 0.0
2018-Mar-29 14:29N 43°25' E 004°50'0 0.0
2018-Mar-29 13:53N 43°25' E 004°50'0 0.0
2018-Mar-29 13:29N 43°25' E 004°50'0 0.0
2018-Mar-29 12:59N 43°25' E 004°50'0 0.0
2018-Mar-29 12:29N 43°25' E 004°50'0 0.0
2018-Mar-29 11:59N 43°25' E 004°50'0 0.0
2018-Mar-29 11:29N 43°25' E 004°50'0 0.0
2018-Mar-29 10:59N 43°25' E 004°50'0 0.0
2018-Mar-29 10:29N 43°25' E 004°50'0 0.0
2018-Mar-29 09:59N 43°25' E 004°50'0 0.0
2018-Mar-29 09:29N 43°25' E 004°50'0 0.0
2018-Mar-29 08:59N 43°25' E 004°50'0 0.0
2018-Mar-29 08:29N 43°25' E 004°50'0 0.0
2018-Mar-29 07:59N 43°25' E 004°50'0 0.0
2018-Mar-29 07:29N 43°25' E 004°50'0 0.0
2018-Mar-29 06:59N 43°25' E 004°50'0 0.0
2018-Mar-29 06:29N 43°25' E 004°50'0 0.0
2018-Mar-29 05:59N 43°25' E 004°50'0 0.0
2018-Mar-29 05:29N 43°25' E 004°50'0 0.0
2018-Mar-29 04:59N 43°25' E 004°50'0 0.0
2018-Mar-29 04:29N 43°25' E 004°50'0 0.0
2018-Mar-29 03:59N 43°25' E 004°50'0 0.0
2018-Mar-29 03:29N 43°25' E 004°50'0 0.0
2018-Mar-29 02:59N 43°25' E 004°50'0 0.0
2018-Mar-29 02:29N 43°25' E 004°50'0 0.0
2018-Mar-29 01:59N 43°25' E 004°50'0 0.0
2018-Mar-29 01:26N 43°25' E 004°50'0 0.0
2018-Mar-29 00:59N 43°25' E 004°50'0 0.0
2018-Mar-29 00:29N 43°25' E 004°50'0 0.0
2018-Mar-28 23:59N 43°25' E 004°50'0 0.0
2018-Mar-28 23:29N 43°25' E 004°50'0 0.0
2018-Mar-28 22:53N 43°25' E 004°50'0 0.0
2018-Mar-28 22:23N 43°25' E 004°50'0 0.0
2018-Mar-28 21:59N 43°25' E 004°50'0 0.0
2018-Mar-28 20:38N 43°25' E 004°50'0 0.0
2018-Mar-28 20:29N 43°25' E 004°50'0 0.0
2018-Mar-28 19:59N 43°25' E 004°50'0 0.0
2018-Mar-28 19:29N 43°25' E 004°50'0 0.0
2018-Mar-28 18:59N 43°25' E 004°50'0 0.0
2018-Mar-28 18:29N 43°25' E 004°50'0 0.0
2018-Mar-28 17:59N 43°25' E 004°50'0 0.0
2018-Mar-28 17:29N 43°25' E 004°50'0 0.0
2018-Mar-28 17:00N 43°25' E 004°50'1 1.9
2018-Mar-28 16:30N 43°25' E 004°51'4 8.8
2018-Mar-28 16:00N 43°23' E 004°57'4 8.4
2018-Mar-28 15:30N 43°19' E 004°59'3 6.0
2018-Mar-28 15:00N 43°17' E 005°01'713.1
2018-Mar-28 14:30N 43°10' E 005°03'713.8
2018-Mar-28 14:01N 43°03' E 005°00'4 8.5
2018-Mar-28 13:30N 42°60' E 004°58'1 1.3
2018-Mar-28 12:57N 43°00' E 004°57'1 1.3
2018-Mar-28 12:30N 43°01' E 004°57'1 1.3
2018-Mar-28 12:00N 43°01' E 004°57'1 1.4
2018-Mar-28 11:30N 43°02' E 004°57'1 1.4
2018-Mar-28 11:00N 43°03' E 004°56'1 1.3
2018-Mar-28 10:31N 43°03' E 004°56'0 0.9
2018-Mar-28 10:01N 43°03' E 004°55'0 0.7
2018-Mar-28 09:31N 43°03' E 004°55'3 6.8
2018-Mar-28 09:00N 43°01' E 004°52'28914.2
2018-Mar-27 12:39N 39°09' E 001°04'10915.4
2018-Mar-27 05:37N 37°43' W 000°22'113.4
2018-Mar-27 05:30N 37°42' W 000°23'713.3
2018-Mar-27 05:00N 37°37' W 000°28'713.2
2018-Mar-27 04:30N 37°31' W 000°33'713.8
2018-Mar-27 03:59N 37°26' W 000°39'714.4
2018-Mar-27 03:30N 37°22' W 000°46'713.8
2018-Mar-27 03:00N 37°18' W 000°53'713.7
2018-Mar-27 02:30N 37°13' W 000°60'21114.5
2018-Mar-26 11:55N 36°00' W 005°07'1023.2
2018-Mar-26 11:30N 35°60' W 005°18'26818.7
2018-Mar-25 21:14N 38°24' W 010°01'522.5
2018-Mar-25 21:00N 38°29' W 010°03'1122.5
2018-Mar-25 20:30N 38°40' W 010°06'1122.3
2018-Mar-25 20:00N 38°51' W 010°05'1122.2
2018-Mar-25 19:30N 39°02' W 010°04'1122.4
2018-Mar-25 19:00N 39°13' W 010°03'1222.3
2018-Mar-25 18:29N 39°25' W 010°03'67817.5
2018-Mar-24 03:51N 49°44' W 003°38'513.3
2018-Mar-24 03:30N 49°47' W 003°31'713.6
2018-Mar-24 03:01N 49°50' W 003°23'713.7
2018-Mar-24 02:30N 49°54' W 003°13'713.5
2018-Mar-24 02:00N 49°57' W 003°04'613.0
2018-Mar-24 01:30N 49°59' W 002°54'612.5
2018-Mar-24 01:00N 50°01' W 002°45'612.1
2018-Mar-24 00:30N 50°03' W 002°36'611.6
2018-Mar-23 23:58N 50°04' W 002°27'1511.2
2018-Mar-23 22:35N 50°06' W 002°03'212.1
2018-Mar-23 22:27N 50°05' W 002°01'512.3
2018-Mar-23 22:00N 50°03' W 001°53'612.9
2018-Mar-23 21:30N 49°59' W 001°44'713.5
2018-Mar-23 21:01N 49°56' W 001°35'714.5
2018-Mar-23 20:30N 49°53' W 001°25'815.2
2018-Mar-23 20:00N 49°50' W 001°14'815.6
2018-Mar-23 19:31N 49°47' W 001°03'815.9
2018-Mar-23 19:00N 49°43' W 000°52'816.0
2018-Mar-23 18:31N 49°40' W 000°41'816.0
2018-Mar-23 18:01N 49°36' W 000°30'815.3
2018-Mar-23 17:31N 49°33' W 000°19'714.1
2018-Mar-23 17:00N 49°32' W 000°08'5 9.2
2018-Mar-23 16:30N 49°31' W 000°02'713.2
2018-Mar-23 16:00N 49°28' E 000°07'1 1.9
2018-Mar-23 15:30N 49°28' E 000°09'0 0.1
2018-Mar-23 15:00N 49°28' E 000°09'0 0.0
2018-Mar-23 14:30N 49°28' E 000°09'0 0.0
2018-Mar-23 14:00N 49°28' E 000°09'0 0.0
2018-Mar-23 13:30N 49°28' E 000°09'0 0.0
2018-Mar-23 13:00N 49°28' E 000°09'0 0.0
2018-Mar-23 12:30N 49°28' E 000°09'0 0.0
2018-Mar-23 12:00N 49°28' E 000°09'0 0.0
2018-Mar-23 11:30N 49°28' E 000°09'0 0.0
2018-Mar-23 11:00N 49°28' E 000°09'0 0.0
2018-Mar-23 10:30N 49°28' E 000°09'0 0.0
2018-Mar-23 10:00N 49°28' E 000°09'0 0.0
2018-Mar-23 09:30N 49°28' E 000°09'0 0.0
2018-Mar-23 09:00N 49°28' E 000°09'0 0.0
2018-Mar-23 08:30N 49°28' E 000°09'0 0.0
2018-Mar-23 08:00N 49°28' E 000°09'0 0.0
2018-Mar-23 07:30N 49°28' E 000°09'0 0.0
2018-Mar-23 07:00N 49°28' E 000°09'0 0.0
2018-Mar-23 06:30N 49°28' E 000°09'0 0.0
2018-Mar-23 06:00N 49°28' E 000°09'0 0.0
2018-Mar-23 05:30N 49°28' E 000°09'0 0.0
2018-Mar-23 05:00N 49°28' E 000°09'0 0.0
2018-Mar-23 04:30N 49°28' E 000°09'0 0.0
2018-Mar-23 04:00N 49°28' E 000°09'0 0.0
2018-Mar-23 03:30N 49°28' E 000°09'0 0.0
2018-Mar-23 03:00N 49°28' E 000°09'0 0.0
2018-Mar-23 02:30N 49°28' E 000°09'0 0.0
2018-Mar-23 02:00N 49°28' E 000°09'0 0.0
2018-Mar-23 01:30N 49°28' E 000°09'0 0.0
2018-Mar-23 01:00N 49°28' E 000°09'0 0.0
2018-Mar-23 00:30N 49°28' E 000°09'0 0.0
2018-Mar-23 00:00N 49°28' E 000°09'0 0.0
2018-Mar-22 23:30N 49°28' E 000°09'0 0.0
2018-Mar-22 23:00N 49°28' E 000°09'0 0.0
2018-Mar-22 22:30N 49°28' E 000°09'0 0.0
2018-Mar-22 22:00N 49°28' E 000°09'0 0.0
2018-Mar-22 21:30N 49°28' E 000°09'0 0.0
2018-Mar-22 21:00N 49°28' E 000°09'0 0.1
2018-Mar-22 20:30N 49°28' E 000°09'1 1.8
2018-Mar-22 20:00N 49°28' E 000°07'611.0
2018-Mar-22 19:30N 49°30' W 000°00'510.4
2018-Mar-22 19:00N 49°33' W 000°07'1 2.7
2018-Mar-22 18:30N 49°34' W 000°08'2 4.4
2018-Mar-22 18:00N 49°36' W 000°07'1 2.1
2018-Mar-22 17:30N 49°37' W 000°06'3 5.9
2018-Mar-22 17:00N 49°40' W 000°05'4 7.6
2018-Mar-22 16:30N 49°43' W 000°02'4 7.7
2018-Mar-22 16:00N 49°45' E 000°03'4 7.6
2018-Mar-22 15:30N 49°48' E 000°06'4 7.3
2018-Mar-22 15:00N 49°52' E 000°09'4 7.7
2018-Mar-22 14:30N 49°55' E 000°11'510.2
2018-Mar-22 14:00N 50°00' E 000°13'5 9.5
2018-Mar-22 13:30N 50°05' E 000°16'4 8.6
2018-Mar-22 13:00N 50°08' E 000°21'17 9.4
2018-Mar-22 11:10N 50°23' E 000°32'313.4
2018-Mar-22 10:58N 50°26' E 000°33'613.6
2018-Mar-22 10:30N 50°32' E 000°34'612.4
2018-Mar-22 10:00N 50°38' E 000°39'713.8
2018-Mar-22 09:30N 50°42' E 000°48'714.8
2018-Mar-22 09:00N 50°46' E 000°57'815.2
2018-Mar-22 08:30N 50°50' E 001°07'815.3
2018-Mar-22 08:00N 50°55' E 001°17'815.3
2018-Mar-22 07:30N 51°00' E 001°25'714.1
2018-Mar-22 07:00N 51°05' E 001°33'713.4
2018-Mar-22 06:30N 51°10' E 001°41'613.0
2018-Mar-22 06:01N 51°15' E 001°47'612.2
2018-Mar-22 05:31N 51°20' E 001°53'611.4
2018-Mar-22 05:01N 51°25' E 001°58'612.7
2018-Mar-22 04:30N 51°23' E 002°08'612.7
2018-Mar-22 04:00N 51°21' E 002°17'611.7
2018-Mar-22 03:30N 51°22' E 002°26'611.7
2018-Mar-22 03:00N 51°23' E 002°35'5 9.4
2018-Mar-22 02:30N 51°24' E 002°43'4 8.6
2018-Mar-22 02:00N 51°25' E 002°49'815.3
2018-Mar-22 01:31N 51°25' E 003°01'815.0
2018-Mar-22 01:01N 51°25' E 003°14'815.2
2018-Mar-22 00:31N 51°25' E 003°26'611.9
2018-Mar-22 00:00N 51°26' E 003°35'4 7.9
2018-Mar-21 23:30N 51°26' E 003°42'611.6
2018-Mar-21 23:01N 51°21' E 003°47'612.0
2018-Mar-21 22:31N 51°23' E 003°57'4 7.5
2018-Mar-21 22:00N 51°24' E 004°02'510.7
2018-Mar-21 21:30N 51°24' E 004°11'5 9.8
2018-Mar-21 21:00N 51°20' E 004°16'3 6.2
2018-Mar-21 20:31N 51°17' E 004°15'0 0.6
2018-Mar-21 19:54N 51°17' E 004°15'0 0.0
2018-Mar-21 19:30N 51°17' E 004°15'0 0.0
2018-Mar-21 19:00N 51°17' E 004°15'0 0.0
2018-Mar-21 18:30N 51°17' E 004°15'0 0.0
2018-Mar-21 17:51N 51°17' E 004°15'0 0.0
2018-Mar-21 17:27N 51°17' E 004°15'0 0.0
2018-Mar-21 16:57N 51°17' E 004°15'0 0.0
2018-Mar-21 16:30N 51°17' E 004°15'0 0.0
2018-Mar-21 15:57N 51°17' E 004°15'0 0.0
2018-Mar-21 15:24N 51°17' E 004°15'0 0.0
2018-Mar-21 15:00N 51°17' E 004°15'0 0.0
2018-Mar-21 14:30N 51°17' E 004°15'0 0.0
2018-Mar-21 14:00N 51°17' E 004°15'0 0.0
2018-Mar-21 13:30N 51°17' E 004°15'0 0.0
2018-Mar-21 13:00N 51°17' E 004°15'0 0.0
2018-Mar-21 12:30N 51°17' E 004°15'0 0.0
2018-Mar-21 12:00N 51°17' E 004°15'0 0.0
2018-Mar-21 11:30N 51°17' E 004°15'0 0.0
2018-Mar-21 11:00N 51°17' E 004°15'0 0.0
2018-Mar-21 10:30N 51°17' E 004°15'0 0.0
2018-Mar-21 10:00N 51°17' E 004°15'0 0.0
2018-Mar-21 09:30N 51°17' E 004°15'0 0.0
2018-Mar-21 09:00N 51°17' E 004°15'0 0.0
2018-Mar-21 08:30N 51°17' E 004°15'0 0.0
2018-Mar-21 08:00N 51°17' E 004°15'0 0.0
2018-Mar-21 07:27N 51°17' E 004°15'0 0.1
2018-Mar-21 07:00N 51°17' E 004°15'0 0.1
2018-Mar-21 06:30N 51°17' E 004°15'  
Track history (hours):
 
Tides and Currents Weather Stations Pressure Air Temp Water Temp Dewpoint Dewpoint Depression Visibility Wind Speed Wind Dir Waves Ship Positions

MSC Portugal

Last reported at 2018-Mar-31 06:02 UTC. Time now 2018-Apr-24 10:49 UTC.
Position N 35°44' E 017°42'.
Warning: this ship's position is 24 days out of date.

Length 304 m; draft 13.8 m.

Type: Ship (hazmat cat A). MMSI: 636017974.

Date/timePositionNaut miles runAvg speedWind from/ knotsBaromVisibWave heightAir tempDewpointWater temp
2018-Mar-31 06:02N 35°44' E 017°42'011.8
2018-Mar-31 06:00N 35°44' E 017°42'1122.2
2018-Mar-31 05:29N 35°47' E 017°28'1019.6
2018-Mar-31 05:00N 35°50' E 017°17'1222.3
2018-Mar-31 04:29N 35°53' E 017°04'1122.3
2018-Mar-31 04:00N 35°57' E 016°51'1419.9
2018-Mar-31 03:18N 36°01' E 016°35'819.4
2018-Mar-31 02:54N 36°04' E 016°26'921.6
2018-Mar-31 02:30N 36°07' E 016°16'1120.5
2018-Mar-31 01:58N 36°11' E 016°03'2821.6
2018-Mar-31 00:41N 36°19' E 015°30'314.1
2018-Mar-31 00:29N 36°20' E 015°27'1222.7
2018-Mar-30 23:58N 36°24' E 015°13'1020.8
2018-Mar-30 23:29N 36°27' E 015°01'1325.9
2018-Mar-30 23:00N 36°33' E 014°47'1122.1
2018-Mar-30 22:30N 36°38' E 014°35'1621.2
2018-Mar-30 21:44N 36°45' E 014°17'924.6
2018-Mar-30 21:21N 36°49' E 014°06'820.5
2018-Mar-30 20:59N 36°53' E 013°58'1123.1
2018-Mar-30 20:30N 36°57' E 013°45'1119.2
2018-Mar-30 19:54N 37°02' E 013°32'3620.2
2018-Mar-30 18:06N 37°19' E 012°52'218.1
2018-Mar-30 17:58N 37°20' E 012°49'1122.1
2018-Mar-30 17:29N 37°25' E 012°37'1117.9
2018-Mar-30 16:53N 37°29' E 012°24'1222.5
2018-Mar-30 16:20N 37°34' E 012°11'1023.5
2018-Mar-30 15:56N 37°40' E 012°01'918.2
2018-Mar-30 15:26N 37°44' E 011°50'1121.8
2018-Mar-30 14:55N 37°49' E 011°38'716.6
2018-Mar-30 14:30N 37°53' E 011°30'1423.5
2018-Mar-30 13:55N 37°59' E 011°15'1224.6
2018-Mar-30 13:25N 38°05' E 011°01'1118.8
2018-Mar-30 12:51N 38°09' E 010°49'515.2
2018-Mar-30 12:30N 38°11' E 010°42'1222.9
2018-Mar-30 12:00N 38°14' E 010°28'1019.7
2018-Mar-30 11:28N 38°17' E 010°16'36520.0
2018-Mar-29 17:11N 43°00' E 005°10'421.1
2018-Mar-29 17:00N 43°03' E 005°08'1121.2
2018-Mar-29 16:31N 43°12' E 005°01'918.5
2018-Mar-29 16:01N 43°21' E 004°58'5 9.8
2018-Mar-29 15:30N 43°24' E 004°52'2 3.7
2018-Mar-29 14:59N 43°25' E 004°50'0 0.0
2018-Mar-29 14:29N 43°25' E 004°50'0 0.0
2018-Mar-29 13:53N 43°25' E 004°50'0 0.0
2018-Mar-29 13:29N 43°25' E 004°50'0 0.0
2018-Mar-29 12:59N 43°25' E 004°50'0 0.0
2018-Mar-29 12:29N 43°25' E 004°50'0 0.0
2018-Mar-29 11:59N 43°25' E 004°50'0 0.0
2018-Mar-29 11:29N 43°25' E 004°50'0 0.0
2018-Mar-29 10:59N 43°25' E 004°50'0 0.0
2018-Mar-29 10:29N 43°25' E 004°50'0 0.0
2018-Mar-29 09:59N 43°25' E 004°50'0 0.0
2018-Mar-29 09:29N 43°25' E 004°50'0 0.0
2018-Mar-29 08:59N 43°25' E 004°50'0 0.0
2018-Mar-29 08:29N 43°25' E 004°50'0 0.0
2018-Mar-29 07:59N 43°25' E 004°50'0 0.0
2018-Mar-29 07:29N 43°25' E 004°50'0 0.0
2018-Mar-29 06:59N 43°25' E 004°50'0 0.0
2018-Mar-29 06:29N 43°25' E 004°50'0 0.0
2018-Mar-29 05:59N 43°25' E 004°50'0 0.0
2018-Mar-29 05:29N 43°25' E 004°50'0 0.0
2018-Mar-29 04:59N 43°25' E 004°50'0 0.0
2018-Mar-29 04:29N 43°25' E 004°50'0 0.0
2018-Mar-29 03:59N 43°25' E 004°50'0 0.0
2018-Mar-29 03:29N 43°25' E 004°50'0 0.0
2018-Mar-29 02:59N 43°25' E 004°50'0 0.0
2018-Mar-29 02:29N 43°25' E 004°50'0 0.0
2018-Mar-29 01:59N 43°25' E 004°50'0 0.0
2018-Mar-29 01:26N 43°25' E 004°50'0 0.0
2018-Mar-29 00:59N 43°25' E 004°50'0 0.0
2018-Mar-29 00:29N 43°25' E 004°50'0 0.0
2018-Mar-28 23:59N 43°25' E 004°50'0 0.0
2018-Mar-28 23:29N 43°25' E 004°50'0 0.0
2018-Mar-28 22:53N 43°25' E 004°50'0 0.0
2018-Mar-28 22:23N 43°25' E 004°50'0 0.0
2018-Mar-28 21:59N 43°25' E 004°50'0 0.0
2018-Mar-28 20:38N 43°25' E 004°50'0 0.0
2018-Mar-28 20:29N 43°25' E 004°50'0 0.0
2018-Mar-28 19:59N 43°25' E 004°50'0 0.0
2018-Mar-28 19:29N 43°25' E 004°50'0 0.0
2018-Mar-28 18:59N 43°25' E 004°50'0 0.0
2018-Mar-28 18:29N 43°25' E 004°50'0 0.0
2018-Mar-28 17:59N 43°25' E 004°50'0 0.0
2018-Mar-28 17:29N 43°25' E 004°50'0 0.0
2018-Mar-28 17:00N 43°25' E 004°50'1 1.9
2018-Mar-28 16:30N 43°25' E 004°51'4 8.8
2018-Mar-28 16:00N 43°23' E 004°57'4 8.4
2018-Mar-28 15:30N 43°19' E 004°59'3 6.0
2018-Mar-28 15:00N 43°17' E 005°01'713.1
2018-Mar-28 14:30N 43°10' E 005°03'713.8
2018-Mar-28 14:01N 43°03' E 005°00'4 8.5
2018-Mar-28 13:30N 42°60' E 004°58'1 1.3
2018-Mar-28 12:57N 43°00' E 004°57'1 1.3
2018-Mar-28 12:30N 43°01' E 004°57'1 1.3
2018-Mar-28 12:00N 43°01' E 004°57'1 1.4
2018-Mar-28 11:30N 43°02' E 004°57'1 1.4
2018-Mar-28 11:00N 43°03' E 004°56'1 1.3
2018-Mar-28 10:31N 43°03' E 004°56'0 0.9
2018-Mar-28 10:01N 43°03' E 004°55'0 0.7
2018-Mar-28 09:31N 43°03' E 004°55'3 6.8
2018-Mar-28 09:00N 43°01' E 004°52'28914.2
2018-Mar-27 12:39N 39°09' E 001°04'10915.4
2018-Mar-27 05:37N 37°43' W 000°22'113.4
2018-Mar-27 05:30N 37°42' W 000°23'713.3
2018-Mar-27 05:00N 37°37' W 000°28'713.2
2018-Mar-27 04:30N 37°31' W 000°33'713.8
2018-Mar-27 03:59N 37°26' W 000°39'714.4
2018-Mar-27 03:30N 37°22' W 000°46'713.8
2018-Mar-27 03:00N 37°18' W 000°53'713.7
2018-Mar-27 02:30N 37°13' W 000°60'21114.5
2018-Mar-26 11:55N 36°00' W 005°07'1023.2
2018-Mar-26 11:30N 35°60' W 005°18'26818.7
2018-Mar-25 21:14N 38°24' W 010°01'522.5
2018-Mar-25 21:00N 38°29' W 010°03'1122.5
2018-Mar-25 20:30N 38°40' W 010°06'1122.3
2018-Mar-25 20:00N 38°51' W 010°05'1122.2
2018-Mar-25 19:30N 39°02' W 010°04'1122.4
2018-Mar-25 19:00N 39°13' W 010°03'1222.3
2018-Mar-25 18:29N 39°25' W 010°03'67817.5
2018-Mar-24 03:51N 49°44' W 003°38'513.3
2018-Mar-24 03:30N 49°47' W 003°31'713.6
2018-Mar-24 03:01N 49°50' W 003°23'713.7
2018-Mar-24 02:30N 49°54' W 003°13'713.5
2018-Mar-24 02:00N 49°57' W 003°04'613.0
2018-Mar-24 01:30N 49°59' W 002°54'612.5
2018-Mar-24 01:00N 50°01' W 002°45'612.1
2018-Mar-24 00:30N 50°03' W 002°36'611.6
2018-Mar-23 23:58N 50°04' W 002°27'1511.2
2018-Mar-23 22:35N 50°06' W 002°03'212.1
2018-Mar-23 22:27N 50°05' W 002°01'512.3
2018-Mar-23 22:00N 50°03' W 001°53'612.9
2018-Mar-23 21:30N 49°59' W 001°44'713.5
2018-Mar-23 21:01N 49°56' W 001°35'714.5
2018-Mar-23 20:30N 49°53' W 001°25'815.2
2018-Mar-23 20:00N 49°50' W 001°14'815.6
2018-Mar-23 19:31N 49°47' W 001°03'815.9
2018-Mar-23 19:00N 49°43' W 000°52'816.0
2018-Mar-23 18:31N 49°40' W 000°41'816.0
2018-Mar-23 18:01N 49°36' W 000°30'815.3
2018-Mar-23 17:31N 49°33' W 000°19'714.1
2018-Mar-23 17:00N 49°32' W 000°08'5 9.2
2018-Mar-23 16:30N 49°31' W 000°02'713.2
2018-Mar-23 16:00N 49°28' E 000°07'1 1.9
2018-Mar-23 15:30N 49°28' E 000°09'0 0.1
2018-Mar-23 15:00N 49°28' E 000°09'0 0.0
2018-Mar-23 14:30N 49°28' E 000°09'0 0.0
2018-Mar-23 14:00N 49°28' E 000°09'0 0.0
2018-Mar-23 13:30N 49°28' E 000°09'0 0.0
2018-Mar-23 13:00N 49°28' E 000°09'0 0.0
2018-Mar-23 12:30N 49°28' E 000°09'0 0.0
2018-Mar-23 12:00N 49°28' E 000°09'0 0.0
2018-Mar-23 11:30N 49°28' E 000°09'0 0.0
2018-Mar-23 11:00N 49°28' E 000°09'0 0.0
2018-Mar-23 10:30N 49°28' E 000°09'0 0.0
2018-Mar-23 10:00N 49°28' E 000°09'0 0.0
2018-Mar-23 09:30N 49°28' E 000°09'0 0.0
2018-Mar-23 09:00N 49°28' E 000°09'0 0.0
2018-Mar-23 08:30N 49°28' E 000°09'0 0.0
2018-Mar-23 08:00N 49°28' E 000°09'0 0.0
2018-Mar-23 07:30N 49°28' E 000°09'0 0.0
2018-Mar-23 07:00N 49°28' E 000°09'0 0.0
2018-Mar-23 06:30N 49°28' E 000°09'0 0.0
2018-Mar-23 06:00N 49°28' E 000°09'0 0.0
2018-Mar-23 05:30N 49°28' E 000°09'0 0.0
2018-Mar-23 05:00N 49°28' E 000°09'0 0.0
2018-Mar-23 04:30N 49°28' E 000°09'0 0.0
2018-Mar-23 04:00N 49°28' E 000°09'0 0.0
2018-Mar-23 03:30N 49°28' E 000°09'0 0.0
2018-Mar-23 03:00N 49°28' E 000°09'0 0.0
2018-Mar-23 02:30N 49°28' E 000°09'0 0.0
2018-Mar-23 02:00N 49°28' E 000°09'0 0.0
2018-Mar-23 01:30N 49°28' E 000°09'0 0.0
2018-Mar-23 01:00N 49°28' E 000°09'0 0.0
2018-Mar-23 00:30N 49°28' E 000°09'0 0.0
2018-Mar-23 00:00N 49°28' E 000°09'0 0.0
2018-Mar-22 23:30N 49°28' E 000°09'0 0.0
2018-Mar-22 23:00N 49°28' E 000°09'0 0.0
2018-Mar-22 22:30N 49°28' E 000°09'0 0.0
2018-Mar-22 22:00N 49°28' E 000°09'0 0.0
2018-Mar-22 21:30N 49°28' E 000°09'0 0.0
2018-Mar-22 21:00N 49°28' E 000°09'0 0.1
2018-Mar-22 20:30N 49°28' E 000°09'1 1.8
2018-Mar-22 20:00N 49°28' E 000°07'611.0
2018-Mar-22 19:30N 49°30' W 000°00'510.4
2018-Mar-22 19:00N 49°33' W 000°07'1 2.7
2018-Mar-22 18:30N 49°34' W 000°08'2 4.4
2018-Mar-22 18:00N 49°36' W 000°07'1 2.1
2018-Mar-22 17:30N 49°37' W 000°06'3 5.9
2018-Mar-22 17:00N 49°40' W 000°05'4 7.6
2018-Mar-22 16:30N 49°43' W 000°02'4 7.7
2018-Mar-22 16:00N 49°45' E 000°03'4 7.6
2018-Mar-22 15:30N 49°48' E 000°06'4 7.3
2018-Mar-22 15:00N 49°52' E 000°09'4 7.7
2018-Mar-22 14:30N 49°55' E 000°11'510.2
2018-Mar-22 14:00N 50°00' E 000°13'5 9.5
2018-Mar-22 13:30N 50°05' E 000°16'4 8.6
2018-Mar-22 13:00N 50°08' E 000°21'17 9.4
2018-Mar-22 11:10N 50°23' E 000°32'313.4
2018-Mar-22 10:58N 50°26' E 000°33'613.6
2018-Mar-22 10:30N 50°32' E 000°34'612.4
2018-Mar-22 10:00N 50°38' E 000°39'713.8
2018-Mar-22 09:30N 50°42' E 000°48'714.8
2018-Mar-22 09:00N 50°46' E 000°57'815.2
2018-Mar-22 08:30N 50°50' E 001°07'815.3
2018-Mar-22 08:00N 50°55' E 001°17'815.3
2018-Mar-22 07:30N 51°00' E 001°25'714.1
2018-Mar-22 07:00N 51°05' E 001°33'713.4
2018-Mar-22 06:30N 51°10' E 001°41'613.0
2018-Mar-22 06:01N 51°15' E 001°47'612.2
2018-Mar-22 05:31N 51°20' E 001°53'611.4
2018-Mar-22 05:01N 51°25' E 001°58'612.7
2018-Mar-22 04:30N 51°23' E 002°08'612.7
2018-Mar-22 04:00N 51°21' E 002°17'611.7
2018-Mar-22 03:30N 51°22' E 002°26'611.7
2018-Mar-22 03:00N 51°23' E 002°35'5 9.4
2018-Mar-22 02:30N 51°24' E 002°43'4 8.6
2018-Mar-22 02:00N 51°25' E 002°49'815.3
2018-Mar-22 01:31N 51°25' E 003°01'815.0
2018-Mar-22 01:01N 51°25' E 003°14'815.2
2018-Mar-22 00:31N 51°25' E 003°26'611.9
2018-Mar-22 00:00N 51°26' E 003°35'4 7.9
2018-Mar-21 23:30N 51°26' E 003°42'611.6
2018-Mar-21 23:01N 51°21' E 003°47'612.0
2018-Mar-21 22:31N 51°23' E 003°57'4 7.5
2018-Mar-21 22:00N 51°24' E 004°02'510.7
2018-Mar-21 21:30N 51°24' E 004°11'5 9.8
2018-Mar-21 21:00N 51°20' E 004°16'3 6.2
2018-Mar-21 20:31N 51°17' E 004°15'0 0.6
2018-Mar-21 19:54N 51°17' E 004°15'0 0.0
2018-Mar-21 19:30N 51°17' E 004°15'0 0.0
2018-Mar-21 19:00N 51°17' E 004°15'0 0.0
2018-Mar-21 18:30N 51°17' E 004°15'0 0.0
2018-Mar-21 17:51N 51°17' E 004°15'0 0.0
2018-Mar-21 17:27N 51°17' E 004°15'0 0.0
2018-Mar-21 16:57N 51°17' E 004°15'0 0.0
2018-Mar-21 16:30N 51°17' E 004°15'0 0.0
2018-Mar-21 15:57N 51°17' E 004°15'0 0.0
2018-Mar-21 15:24N 51°17' E 004°15'0 0.0
2018-Mar-21 15:00N 51°17' E 004°15'0 0.0
2018-Mar-21 14:30N 51°17' E 004°15'0 0.0
2018-Mar-21 14:00N 51°17' E 004°15'0 0.0
2018-Mar-21 13:30N 51°17' E 004°15'0 0.0
2018-Mar-21 13:00N 51°17' E 004°15'0 0.0
2018-Mar-21 12:30N 51°17' E 004°15'0 0.0
2018-Mar-21 12:00N 51°17' E 004°15'0 0.0
2018-Mar-21 11:30N 51°17' E 004°15'0 0.0
2018-Mar-21 11:00N 51°17' E 004°15'0 0.0
2018-Mar-21 10:30N 51°17' E 004°15'0 0.0
2018-Mar-21 10:00N 51°17' E 004°15'0 0.0
2018-Mar-21 09:30N 51°17' E 004°15'0 0.0
2018-Mar-21 09:00N 51°17' E 004°15'0 0.0
2018-Mar-21 08:30N 51°17' E 004°15'0 0.0
2018-Mar-21 08:00N 51°17' E 004°15'0 0.0
2018-Mar-21 07:27N 51°17' E 004°15'0 0.1
2018-Mar-21 07:00N 51°17' E 004°15'0 0.1
2018-Mar-21 06:30N 51°17' E 004°15'  

Dump ship's entire track history